createdAt,value
2018-12-31T00:00:26.987Z,1025.82
2018-12-31T00:01:07.758Z,1025.83
2018-12-31T00:01:48.552Z,1025.8
2018-12-31T00:02:29.301Z,1025.81
2018-12-31T00:03:10.005Z,1025.8
2018-12-31T00:03:50.898Z,1025.79
2018-12-31T00:04:31.659Z,1025.81
2018-12-31T00:05:12.488Z,1025.82
2018-12-31T00:05:53.426Z,1025.84
2018-12-31T00:06:34.046Z,1025.85
2018-12-31T00:07:14.890Z,1025.83
2018-12-31T00:07:55.617Z,1025.82
2018-12-31T00:08:36.381Z,1025.81
2018-12-31T00:09:17.132Z,1025.85
2018-12-31T00:09:57.890Z,1025.88
2018-12-31T00:10:38.735Z,1025.9
2018-12-31T00:11:19.549Z,1025.82
2018-12-31T00:12:00.298Z,1025.87
2018-12-31T00:12:41.301Z,1025.88
2018-12-31T00:13:22.059Z,1025.91
2018-12-31T00:14:02.815Z,1025.89
2018-12-31T00:14:43.650Z,1025.83
2018-12-31T00:15:24.405Z,1025.9
2018-12-31T00:16:05.133Z,1025.86
2018-12-31T00:16:45.935Z,1025.86
2018-12-31T00:17:26.795Z,1025.83
2018-12-31T00:18:07.595Z,1025.89
2018-12-31T00:18:48.325Z,1025.89
2018-12-31T00:19:29.102Z,1025.89
2018-12-31T00:20:09.889Z,1025.92
2018-12-31T00:20:50.634Z,1025.91
2018-12-31T00:21:31.395Z,1025.93
2018-12-31T00:22:12.199Z,1025.9
2018-12-31T00:22:52.916Z,1025.97
2018-12-31T00:23:33.647Z,1025.96
2018-12-31T00:24:14.533Z,1025.93
2018-12-31T00:24:55.234Z,1025.94
2018-12-31T00:25:35.913Z,1025.94
2018-12-31T00:26:16.685Z,1025.92
2018-12-31T00:26:57.474Z,1025.93
2018-12-31T00:27:38.303Z,1025.95
2018-12-31T00:28:19.123Z,1025.97
2018-12-31T00:28:59.916Z,1025.96
2018-12-31T00:29:40.665Z,1025.98
2018-12-31T00:30:21.420Z,1025.96
2018-12-31T00:31:02.162Z,1025.98
2018-12-31T00:31:42.927Z,1025.96
2018-12-31T00:32:23.674Z,1025.95
2018-12-31T00:33:04.426Z,1025.95
2018-12-31T00:33:45.186Z,1025.99
2018-12-31T00:34:25.941Z,1025.98
2018-12-31T00:35:06.770Z,1025.99
2018-12-31T00:35:47.563Z,1025.99
2018-12-31T00:36:28.284Z,1025.95
2018-12-31T00:37:09.097Z,1025.96
2018-12-31T00:37:49.848Z,1025.98
2018-12-31T00:38:30.560Z,1026.03
2018-12-31T00:39:11.333Z,1026
2018-12-31T00:39:52.065Z,1026
2018-12-31T00:40:32.887Z,1026.03
2018-12-31T00:41:13.658Z,1026.01
2018-12-31T00:41:54.405Z,1026.05
2018-12-31T00:42:35.142Z,1026.06
2018-12-31T00:43:15.857Z,1026.09
2018-12-31T00:43:56.653Z,1026.11
2018-12-31T00:44:37.414Z,1026.14
2018-12-31T00:45:18.115Z,1026.12
2018-12-31T00:45:58.841Z,1026.13
2018-12-31T00:46:39.598Z,1026.1
2018-12-31T00:47:20.426Z,1026.13
2018-12-31T00:48:01.306Z,1026.1
2018-12-31T00:48:42.070Z,1026.09
2018-12-31T00:49:22.805Z,1026.11
2018-12-31T00:50:03.518Z,1026.13
2018-12-31T00:50:44.299Z,1026.11
2018-12-31T00:51:25.072Z,1026.14
2018-12-31T00:52:05.828Z,1026.1
2018-12-31T00:52:46.565Z,1026.13
2018-12-31T00:53:27.331Z,1026.15
2018-12-31T00:54:08.109Z,1026.15
2018-12-31T00:54:48.978Z,1026.11
2018-12-31T00:55:29.700Z,1026.11
2018-12-31T00:56:10.408Z,1026.13
2018-12-31T00:56:51.118Z,1026.12
2018-12-31T00:57:31.851Z,1026.11
2018-12-31T00:58:12.715Z,1026.13
2018-12-31T00:58:53.429Z,1026.18
2018-12-31T00:59:34.163Z,1026.15
2018-12-31T01:00:14.931Z,1026.15
2018-12-31T01:00:55.700Z,1026.19
2018-12-31T01:01:36.525Z,1026.17
2018-12-31T01:02:17.306Z,1026.21
2018-12-31T01:02:58.034Z,1026.19
2018-12-31T01:03:38.740Z,1026.22
2018-12-31T01:04:19.569Z,1026.25
2018-12-31T01:05:00.324Z,1026.19
2018-12-31T01:05:41.147Z,1026.23
2018-12-31T01:06:21.897Z,1026.2
2018-12-31T01:07:02.621Z,1026.22
2018-12-31T01:07:43.467Z,1026.24
2018-12-31T01:08:24.246Z,1026.22
2018-12-31T01:09:05.008Z,1026.2
2018-12-31T01:09:45.725Z,1026.21
2018-12-31T01:10:26.456Z,1026.2
2018-12-31T01:11:07.282Z,1026.2
2018-12-31T01:11:48.004Z,1026.21
2018-12-31T01:12:28.725Z,1026.21
2018-12-31T01:13:09.549Z,1026.19
2018-12-31T01:13:50.293Z,1026.18
2018-12-31T01:14:31.065Z,1026.17
2018-12-31T01:15:11.787Z,1026.15
2018-12-31T01:15:52.531Z,1026.16
2018-12-31T01:16:33.332Z,1026.16
2018-12-31T01:17:14.140Z,1026.13
2018-12-31T01:17:54.932Z,1026.16
2018-12-31T01:18:35.626Z,1026.14
2018-12-31T01:19:16.349Z,1026.19
2018-12-31T01:19:57.135Z,1026.2
2018-12-31T01:20:37.951Z,1026.19
2018-12-31T01:21:18.747Z,1026.19
2018-12-31T01:21:59.449Z,1026.21
2018-12-31T01:22:40.219Z,1026.22
2018-12-31T01:23:20.929Z,1026.22
2018-12-31T01:24:01.741Z,1026.26
2018-12-31T01:24:42.563Z,1026.22
2018-12-31T01:25:23.284Z,1026.22
2018-12-31T01:26:04.074Z,1026.26
2018-12-31T01:26:44.864Z,1026.25
2018-12-31T01:27:25.657Z,1026.26
2018-12-31T01:28:06.432Z,1026.28
2018-12-31T01:28:47.139Z,1026.25
2018-12-31T01:29:27.941Z,1026.29
2018-12-31T01:30:08.732Z,1026.28
2018-12-31T01:30:49.465Z,1026.27
2018-12-31T01:31:30.147Z,1026.28
2018-12-31T01:32:10.855Z,1026.28
2018-12-31T01:32:51.694Z,1026.32
2018-12-31T01:33:32.441Z,1026.29
2018-12-31T01:34:13.174Z,1026.29
2018-12-31T01:34:53.957Z,1026.3
2018-12-31T01:35:34.773Z,1026.32
2018-12-31T01:36:15.610Z,1026.34
2018-12-31T01:36:56.344Z,1026.32
2018-12-31T01:37:37.065Z,1026.32
2018-12-31T01:38:17.785Z,1026.36
2018-12-31T01:38:58.508Z,1026.34
2018-12-31T01:39:39.292Z,1026.4
2018-12-31T01:40:20.099Z,1026.39
2018-12-31T01:41:00.874Z,1026.4
2018-12-31T01:41:41.859Z,1026.43
2018-12-31T01:42:22.341Z,1026.46
2018-12-31T01:43:03.114Z,1026.5
2018-12-31T01:43:43.800Z,1026.49
2018-12-31T01:44:24.501Z,1026.52
2018-12-31T01:45:05.193Z,1026.56
2018-12-31T01:45:45.942Z,1026.58
2018-12-31T01:46:26.705Z,1026.62
2018-12-31T01:47:07.433Z,1026.61
2018-12-31T01:47:48.180Z,1026.66
2018-12-31T01:48:28.952Z,1026.64
2018-12-31T01:49:09.802Z,1026.7
2018-12-31T01:49:50.593Z,1026.64
2018-12-31T01:50:31.317Z,1026.63
2018-12-31T01:51:12.113Z,1026.67
2018-12-31T01:51:52.865Z,1026.7
2018-12-31T01:52:33.594Z,1026.69
2018-12-31T01:53:14.323Z,1026.7
2018-12-31T01:53:55.043Z,1026.71
2018-12-31T01:54:35.848Z,1026.71
2018-12-31T01:55:16.583Z,1026.78
2018-12-31T01:55:57.390Z,1026.79
2018-12-31T01:56:38.104Z,1026.84
2018-12-31T01:57:18.887Z,1026.83
2018-12-31T01:57:59.629Z,1026.82
2018-12-31T01:58:40.415Z,1026.84
2018-12-31T01:59:21.239Z,1026.84
2018-12-31T02:00:02.003Z,1026.78
2018-12-31T02:00:42.714Z,1026.79
2018-12-31T02:01:23.581Z,1026.79
2018-12-31T02:02:04.382Z,1026.79
2018-12-31T02:02:45.179Z,1026.78
2018-12-31T02:03:25.881Z,1026.78
2018-12-31T02:04:06.583Z,1026.8
2018-12-31T02:04:47.365Z,1026.79
2018-12-31T02:05:28.173Z,1026.79
2018-12-31T02:06:08.971Z,1026.82
2018-12-31T02:06:49.743Z,1026.86
2018-12-31T02:07:30.527Z,1026.84
2018-12-31T02:08:11.261Z,1026.85
2018-12-31T02:08:52.039Z,1026.87
2018-12-31T02:09:32.831Z,1026.86
2018-12-31T02:10:13.527Z,1026.84
2018-12-31T02:10:54.226Z,1026.89
2018-12-31T02:11:34.961Z,1026.83
2018-12-31T02:12:15.816Z,1026.83
2018-12-31T02:12:56.581Z,1026.81
2018-12-31T02:13:37.351Z,1026.84
2018-12-31T02:14:18.076Z,1026.8
2018-12-31T02:14:58.811Z,1026.81
2018-12-31T02:15:39.508Z,1026.79
2018-12-31T02:16:20.343Z,1026.77
2018-12-31T02:17:01.111Z,1026.75
2018-12-31T02:17:41.809Z,1026.74
2018-12-31T02:18:22.604Z,1026.74
2018-12-31T02:19:03.388Z,1026.71
2018-12-31T02:19:44.219Z,1026.75
2018-12-31T02:20:24.995Z,1026.72
2018-12-31T02:21:05.704Z,1026.71
2018-12-31T02:21:46.536Z,1026.73
2018-12-31T02:22:27.285Z,1026.72
2018-12-31T02:23:08.007Z,1026.69
2018-12-31T02:23:48.691Z,1026.71
2018-12-31T02:24:29.403Z,1026.69
2018-12-31T02:25:10.229Z,1026.73
2018-12-31T02:25:50.929Z,1026.7
2018-12-31T02:26:31.656Z,1026.78
2018-12-31T02:27:12.495Z,1026.73
2018-12-31T02:27:53.242Z,1026.74
2018-12-31T02:28:34.050Z,1026.75
2018-12-31T02:29:14.737Z,1026.76
2018-12-31T02:29:55.448Z,1026.78
2018-12-31T02:30:36.166Z,1026.77
2018-12-31T02:31:16.944Z,1026.74
2018-12-31T02:31:57.748Z,1026.77
2018-12-31T02:32:38.528Z,1026.73
2018-12-31T02:33:19.285Z,1026.75
2018-12-31T02:34:00.017Z,1026.74
2018-12-31T02:34:40.793Z,1026.72
2018-12-31T02:35:21.641Z,1026.71
2018-12-31T02:36:02.340Z,1026.67
2018-12-31T02:36:43.119Z,1026.68
2018-12-31T02:37:23.841Z,1026.67
2018-12-31T02:38:04.676Z,1026.62
2018-12-31T02:38:45.454Z,1026.61
2018-12-31T02:39:26.296Z,1026.57
2018-12-31T02:40:07.049Z,1026.56
2018-12-31T02:40:47.776Z,1026.6
2018-12-31T02:41:28.475Z,1026.59
2018-12-31T02:42:09.202Z,1026.58
2018-12-31T02:42:50.014Z,1026.63
2018-12-31T02:43:30.722Z,1026.61
2018-12-31T02:44:11.430Z,1026.57
2018-12-31T02:44:52.237Z,1026.62
2018-12-31T02:45:32.969Z,1026.6
2018-12-31T02:46:13.849Z,1026.63
2018-12-31T02:46:54.606Z,1026.63
2018-12-31T02:47:35.319Z,1026.65
2018-12-31T02:48:16.063Z,1026.65
2018-12-31T02:48:56.824Z,1026.66
2018-12-31T02:49:37.665Z,1026.66
2018-12-31T02:50:18.517Z,1026.69
2018-12-31T02:50:59.228Z,1026.68
2018-12-31T02:51:39.922Z,1026.66
2018-12-31T02:52:20.735Z,1026.72
2018-12-31T02:53:01.467Z,1026.66
2018-12-31T02:53:42.204Z,1026.64
2018-12-31T02:54:22.912Z,1026.67
2018-12-31T02:55:03.671Z,1026.62
2018-12-31T02:55:44.498Z,1026.63
2018-12-31T02:56:25.259Z,1026.6
2018-12-31T02:57:05.962Z,1026.67
2018-12-31T02:57:46.781Z,1026.66
2018-12-31T02:58:27.579Z,1026.67
2018-12-31T02:59:08.427Z,1026.66
2018-12-31T02:59:49.164Z,1026.67
2018-12-31T03:00:29.887Z,1026.71
2018-12-31T03:01:10.702Z,1026.73
2018-12-31T03:01:51.416Z,1026.72
2018-12-31T03:02:32.165Z,1026.74
2018-12-31T03:03:12.860Z,1026.79
2018-12-31T03:03:53.590Z,1026.76
2018-12-31T03:04:34.396Z,1026.79
2018-12-31T03:05:15.159Z,1026.82
2018-12-31T03:05:55.981Z,1026.83
2018-12-31T03:06:36.663Z,1026.82
2018-12-31T03:07:17.353Z,1026.84
2018-12-31T03:07:58.068Z,1026.84
2018-12-31T03:08:38.851Z,1026.84
2018-12-31T03:09:19.619Z,1026.82
2018-12-31T03:10:00.314Z,1026.8
2018-12-31T03:10:41.117Z,1026.81
2018-12-31T03:11:21.891Z,1026.8
2018-12-31T03:12:02.713Z,1026.77
2018-12-31T03:12:43.469Z,1026.81
2018-12-31T03:13:24.181Z,1026.78
2018-12-31T03:14:04.918Z,1026.75
2018-12-31T03:14:45.724Z,1026.74
2018-12-31T03:15:26.511Z,1026.74
2018-12-31T03:16:07.291Z,1026.7
2018-12-31T03:16:48.080Z,1026.73
2018-12-31T03:17:28.788Z,1026.7
2018-12-31T03:18:09.556Z,1026.73
2018-12-31T03:18:50.321Z,1026.73
2018-12-31T03:19:31.038Z,1026.72
2018-12-31T03:20:11.738Z,1026.7
2018-12-31T03:20:52.430Z,1026.7
2018-12-31T03:21:33.224Z,1026.66
2018-12-31T03:22:14.004Z,1026.64
2018-12-31T03:22:54.853Z,1026.64
2018-12-31T03:23:35.615Z,1026.58
2018-12-31T03:24:16.374Z,1026.54
2018-12-31T03:24:57.089Z,1026.51
2018-12-31T03:25:37.805Z,1026.51
2018-12-31T03:26:18.630Z,1026.52
2018-12-31T03:26:59.399Z,1026.49
2018-12-31T03:27:40.156Z,1026.54
2018-12-31T03:28:20.994Z,1026.53
2018-12-31T03:29:01.792Z,1026.48
2018-12-31T03:29:42.604Z,1026.49
2018-12-31T03:30:23.321Z,1026.49
2018-12-31T03:31:04.059Z,1026.48
2018-12-31T03:31:44.858Z,1026.49
2018-12-31T03:32:25.593Z,1026.46
2018-12-31T03:33:06.324Z,1026.46
2018-12-31T03:33:47.041Z,1026.45
2018-12-31T03:34:27.795Z,1026.41
2018-12-31T03:35:08.599Z,1026.41
2018-12-31T03:35:49.322Z,1026.4
2018-12-31T03:36:30.112Z,1026.39
2018-12-31T03:37:10.889Z,1026.39
2018-12-31T03:37:51.683Z,1026.39
2018-12-31T03:38:32.482Z,1026.35
2018-12-31T03:39:13.192Z,1026.33
2018-12-31T03:39:53.899Z,1026.32
2018-12-31T03:40:34.664Z,1026.31
2018-12-31T03:41:15.476Z,1026.31
2018-12-31T03:41:56.269Z,1026.33
2018-12-31T03:42:37.130Z,1026.31
2018-12-31T03:43:17.872Z,1026.32
2018-12-31T03:43:58.651Z,1026.27
2018-12-31T03:44:39.458Z,1026.26
2018-12-31T03:45:20.234Z,1026.23
2018-12-31T03:46:00.911Z,1026.2
2018-12-31T03:46:41.610Z,1026.22
2018-12-31T03:47:22.413Z,1026.25
2018-12-31T03:48:03.212Z,1026.23
2018-12-31T03:48:43.920Z,1026.21
2018-12-31T03:49:24.659Z,1026.24
2018-12-31T03:50:05.459Z,1026.22
2018-12-31T03:50:46.319Z,1026.2
2018-12-31T03:51:27.163Z,1026.21
2018-12-31T03:52:07.850Z,1026.18
2018-12-31T03:52:48.625Z,1026.17
2018-12-31T03:53:29.401Z,1026.19
2018-12-31T03:54:10.109Z,1026.16
2018-12-31T03:54:50.851Z,1026.15
2018-12-31T03:55:31.574Z,1026.13
2018-12-31T03:56:12.334Z,1026.16
2018-12-31T03:56:53.217Z,1026.12
2018-12-31T03:57:33.966Z,1026.09
2018-12-31T03:58:14.783Z,1026.08
2018-12-31T03:58:55.499Z,1026.08
2018-12-31T03:59:36.244Z,1026.03
2018-12-31T04:00:16.999Z,1026.04
2018-12-31T04:00:57.795Z,1026.03
2018-12-31T04:01:38.563Z,1026.01
2018-12-31T04:02:19.259Z,1026.02
2018-12-31T04:03:00.031Z,1025.97
2018-12-31T04:03:40.844Z,1026
2018-12-31T04:04:21.663Z,1026.04
2018-12-31T04:05:02.378Z,1025.99
2018-12-31T04:05:43.097Z,1026.03
2018-12-31T04:06:23.870Z,1026.01
2018-12-31T04:07:04.631Z,1026.06
2018-12-31T04:07:52.749Z,1026.07
2018-12-31T04:08:26.098Z,1026.06
2018-12-31T04:09:06.842Z,1026.06
2018-12-31T04:09:47.596Z,1026.04
2018-12-31T04:10:28.322Z,1026.08
2018-12-31T04:11:09.067Z,1026.07
2018-12-31T04:11:49.885Z,1026.03
2018-12-31T04:12:30.705Z,1026.05
2018-12-31T04:13:11.545Z,1026.02
2018-12-31T04:13:52.238Z,1026.02
2018-12-31T04:14:32.966Z,1026.02
2018-12-31T04:15:13.688Z,1026.06
2018-12-31T04:15:54.525Z,1026.04
2018-12-31T04:16:35.337Z,1026.01
2018-12-31T04:17:16.068Z,1026.01
2018-12-31T04:17:56.890Z,1026.02
2018-12-31T04:18:37.662Z,1026.01
2018-12-31T04:19:18.437Z,1026.01
2018-12-31T04:19:59.236Z,1026.01
2018-12-31T04:20:39.941Z,1026.01
2018-12-31T04:21:20.648Z,1026.02
2018-12-31T04:22:01.426Z,1026.02
2018-12-31T04:22:42.208Z,1026.03
2018-12-31T04:23:22.994Z,1026.06
2018-12-31T04:24:03.829Z,1026.06
2018-12-31T04:24:44.532Z,1026.07
2018-12-31T04:25:25.261Z,1026.07
2018-12-31T04:26:05.990Z,1026.07
2018-12-31T04:26:46.779Z,1026.07
2018-12-31T04:27:27.613Z,1026.08
2018-12-31T04:28:08.333Z,1026.05
2018-12-31T04:28:49.083Z,1026.06
2018-12-31T04:29:29.929Z,1026.04
2018-12-31T04:30:10.679Z,1026.03
2018-12-31T04:30:51.485Z,1026.01
2018-12-31T04:31:32.254Z,1026.02
2018-12-31T04:32:12.938Z,1026.02
2018-12-31T04:32:53.709Z,1025.99
2018-12-31T04:33:34.462Z,1026.01
2018-12-31T04:34:15.239Z,1026.05
2018-12-31T04:34:56.082Z,1026.04
2018-12-31T04:35:36.783Z,1026.03
2018-12-31T04:36:17.503Z,1026.07
2018-12-31T04:36:58.272Z,1026.03
2018-12-31T04:37:38.979Z,1026.02
2018-12-31T04:38:19.695Z,1026.02
2018-12-31T04:39:00.413Z,1026.03
2018-12-31T04:39:41.153Z,1026.03
2018-12-31T04:40:21.964Z,1026.05
2018-12-31T04:41:02.687Z,1026.03
2018-12-31T04:41:43.440Z,1026.05
2018-12-31T04:42:24.289Z,1026.03
2018-12-31T04:43:05.084Z,1026.06
2018-12-31T04:43:45.895Z,1026.08
2018-12-31T04:44:26.596Z,1026.09
2018-12-31T04:45:07.373Z,1026.08
2018-12-31T04:45:48.184Z,1026.09
2018-12-31T04:46:28.871Z,1026.06
2018-12-31T04:47:09.599Z,1026.05
2018-12-31T04:47:50.362Z,1026.05
2018-12-31T04:48:31.147Z,1026.04
2018-12-31T04:49:11.963Z,1026.05
2018-12-31T04:49:52.783Z,1026.04
2018-12-31T04:50:33.564Z,1026.02
2018-12-31T04:51:14.251Z,1026.06
2018-12-31T04:51:54.975Z,1026.04
2018-12-31T04:52:35.746Z,1026.06
2018-12-31T04:53:16.590Z,1026.08
2018-12-31T04:53:57.330Z,1026.08
2018-12-31T04:54:38.041Z,1026.08
2018-12-31T04:55:18.833Z,1026.03
2018-12-31T04:55:59.601Z,1026.06
2018-12-31T04:56:40.403Z,1026.04
2018-12-31T04:57:21.107Z,1026.05
2018-12-31T04:58:01.835Z,1026.04
2018-12-31T04:58:42.528Z,1026.05
2018-12-31T04:59:23.320Z,1026.07
2018-12-31T05:00:04.054Z,1026.07
2018-12-31T05:00:44.866Z,1026.09
2018-12-31T05:01:25.595Z,1026.13
2018-12-31T05:02:06.316Z,1026.11
2018-12-31T05:02:47.110Z,1026.07
2018-12-31T05:03:27.882Z,1026.08
2018-12-31T05:04:08.602Z,1026.07
2018-12-31T05:04:49.372Z,1026.05
2018-12-31T05:05:30.085Z,1026.03
2018-12-31T05:06:10.910Z,1026.08
2018-12-31T05:06:51.695Z,1026.08
2018-12-31T05:07:32.475Z,1026.13
2018-12-31T05:08:13.207Z,1026.11
2018-12-31T05:08:53.950Z,1026.12
2018-12-31T05:09:34.718Z,1026.1
2018-12-31T05:10:15.514Z,1026.13
2018-12-31T05:10:56.225Z,1026.12
2018-12-31T05:11:36.923Z,1026.11
2018-12-31T05:12:17.694Z,1026.09
2018-12-31T05:12:58.450Z,1026.16
2018-12-31T05:13:39.266Z,1026.13
2018-12-31T05:14:20.000Z,1026.16
2018-12-31T05:15:00.799Z,1026.11
2018-12-31T05:15:41.679Z,1026.13
2018-12-31T05:16:22.433Z,1026.11
2018-12-31T05:17:03.180Z,1026.15
2018-12-31T05:17:43.881Z,1026.18
2018-12-31T05:18:24.603Z,1026.14
2018-12-31T05:19:05.428Z,1026.15
2018-12-31T05:19:46.160Z,1026.13
2018-12-31T05:20:26.938Z,1026.17
2018-12-31T05:21:07.763Z,1026.14
2018-12-31T05:21:48.526Z,1026.15
2018-12-31T05:22:29.333Z,1026.2
2018-12-31T05:23:10.061Z,1026.19
2018-12-31T05:23:50.747Z,1026.21
2018-12-31T05:24:31.425Z,1026.21
2018-12-31T05:25:12.201Z,1026.21
2018-12-31T05:25:53.045Z,1026.21
2018-12-31T05:26:33.849Z,1026.21
2018-12-31T05:27:14.621Z,1026.23
2018-12-31T05:27:55.333Z,1026.22
2018-12-31T05:28:36.086Z,1026.23
2018-12-31T05:29:16.893Z,1026.25
2018-12-31T05:29:57.625Z,1026.22
2018-12-31T05:30:38.371Z,1026.25
2018-12-31T05:31:19.065Z,1026.24
2018-12-31T05:31:59.862Z,1026.24
2018-12-31T05:32:40.621Z,1026.25
2018-12-31T05:33:21.425Z,1026.31
2018-12-31T05:34:02.165Z,1026.27
2018-12-31T05:34:42.871Z,1026.25
2018-12-31T05:35:23.582Z,1026.31
2018-12-31T05:36:04.304Z,1026.3
2018-12-31T05:36:45.094Z,1026.33
2018-12-31T05:37:25.833Z,1026.31
2018-12-31T05:38:06.566Z,1026.32
2018-12-31T05:38:47.351Z,1026.35
2018-12-31T05:39:28.148Z,1026.34
2018-12-31T05:40:08.950Z,1026.32
2018-12-31T05:40:49.644Z,1026.34
2018-12-31T05:41:30.367Z,1026.32
2018-12-31T05:42:11.091Z,1026.33
2018-12-31T05:42:51.944Z,1026.32
2018-12-31T05:43:32.700Z,1026.33
2018-12-31T05:44:13.502Z,1026.34
2018-12-31T05:44:54.226Z,1026.32
2018-12-31T05:45:34.925Z,1026.33
2018-12-31T05:46:15.796Z,1026.33
2018-12-31T05:46:56.542Z,1026.38
2018-12-31T05:47:37.270Z,1026.35
2018-12-31T05:48:17.996Z,1026.37
2018-12-31T05:48:58.736Z,1026.38
2018-12-31T05:49:39.541Z,1026.39
2018-12-31T05:50:20.277Z,1026.38
2018-12-31T05:51:01.085Z,1026.37
2018-12-31T05:51:41.886Z,1026.34
2018-12-31T05:52:22.645Z,1026.34
2018-12-31T05:53:03.468Z,1026.34
2018-12-31T05:53:44.199Z,1026.33
2018-12-31T05:54:24.934Z,1026.34
2018-12-31T05:55:05.745Z,1026.34
2018-12-31T05:55:46.460Z,1026.39
2018-12-31T05:56:27.172Z,1026.34
2018-12-31T05:57:07.850Z,1026.37
2018-12-31T05:57:48.564Z,1026.4
2018-12-31T05:58:29.389Z,1026.4
2018-12-31T05:59:10.219Z,1026.39
2018-12-31T05:59:50.963Z,1026.38
2018-12-31T06:00:31.685Z,1026.39
2018-12-31T06:01:12.441Z,1026.41
2018-12-31T06:01:53.198Z,1026.4
2018-12-31T06:02:34.041Z,1026.39
2018-12-31T06:03:14.793Z,1026.43
2018-12-31T06:03:55.470Z,1026.44
2018-12-31T06:04:36.300Z,1026.42
2018-12-31T06:05:17.061Z,1026.44
2018-12-31T06:05:57.857Z,1026.44
2018-12-31T06:06:38.565Z,1026.42
2018-12-31T06:07:19.333Z,1026.46
2018-12-31T06:08:00.134Z,1026.45
2018-12-31T06:08:40.856Z,1026.45
2018-12-31T06:09:21.587Z,1026.48
2018-12-31T06:10:02.274Z,1026.47
2018-12-31T06:10:43.056Z,1026.49
2018-12-31T06:11:23.825Z,1026.49
2018-12-31T06:12:04.607Z,1026.5
2018-12-31T06:12:45.311Z,1026.48
2018-12-31T06:13:26.120Z,1026.5
2018-12-31T06:14:06.913Z,1026.47
2018-12-31T06:14:47.657Z,1026.49
2018-12-31T06:15:28.391Z,1026.51
2018-12-31T06:16:09.108Z,1026.5
2018-12-31T06:16:49.816Z,1026.52
2018-12-31T06:17:30.618Z,1026.53
2018-12-31T06:18:11.356Z,1026.56
2018-12-31T06:18:52.138Z,1026.55
2018-12-31T06:19:32.884Z,1026.56
2018-12-31T06:20:13.643Z,1026.57
2018-12-31T06:20:54.470Z,1026.57
2018-12-31T06:21:35.207Z,1026.61
2018-12-31T06:22:15.939Z,1026.6
2018-12-31T06:22:56.670Z,1026.62
2018-12-31T06:23:37.423Z,1026.61
2018-12-31T06:24:18.219Z,1026.63
2018-12-31T06:24:58.937Z,1026.63
2018-12-31T06:25:39.639Z,1026.66
2018-12-31T06:26:20.448Z,1026.65
2018-12-31T06:27:01.270Z,1026.68
2018-12-31T06:27:42.025Z,1026.67
2018-12-31T06:28:22.811Z,1026.65
2018-12-31T06:29:03.489Z,1026.65
2018-12-31T06:29:44.279Z,1026.67
2018-12-31T06:30:25.041Z,1026.67
2018-12-31T06:31:05.730Z,1026.68
2018-12-31T06:31:46.464Z,1026.67
2018-12-31T06:32:27.204Z,1026.65
2018-12-31T06:33:08.003Z,1026.65
2018-12-31T06:33:48.802Z,1026.65
2018-12-31T06:34:29.602Z,1026.67
2018-12-31T06:35:10.353Z,1026.62
2018-12-31T06:35:51.104Z,1026.61
2018-12-31T06:36:31.788Z,1026.64
2018-12-31T06:37:12.593Z,1026.64
2018-12-31T06:37:53.367Z,1026.65
2018-12-31T06:38:34.121Z,1026.64
2018-12-31T06:39:14.915Z,1026.61
2018-12-31T06:39:55.695Z,1026.69
2018-12-31T06:40:36.491Z,1026.67
2018-12-31T06:41:17.231Z,1026.63
2018-12-31T06:41:57.977Z,1026.66
2018-12-31T06:42:38.724Z,1026.7
2018-12-31T06:43:19.519Z,1026.7
2018-12-31T06:44:00.304Z,1026.72
2018-12-31T06:44:41.113Z,1026.75
2018-12-31T06:45:21.866Z,1026.78
2018-12-31T06:46:02.575Z,1026.77
2018-12-31T06:46:43.413Z,1026.78
2018-12-31T06:47:24.193Z,1026.8
2018-12-31T06:48:04.918Z,1026.78
2018-12-31T06:48:45.635Z,1026.76
2018-12-31T06:49:26.384Z,1026.76
2018-12-31T06:50:07.161Z,1026.8
2018-12-31T06:50:47.903Z,1026.76
2018-12-31T06:51:28.736Z,1026.77
2018-12-31T06:52:09.513Z,1026.76
2018-12-31T06:52:50.258Z,1026.75
2018-12-31T06:53:31.013Z,1026.71
2018-12-31T06:54:11.760Z,1026.69
2018-12-31T06:54:52.538Z,1026.72
2018-12-31T06:55:33.293Z,1026.72
2018-12-31T06:56:14.033Z,1026.72
2018-12-31T06:56:54.847Z,1026.71
2018-12-31T06:57:35.688Z,1026.73
2018-12-31T06:58:16.477Z,1026.69
2018-12-31T06:58:57.202Z,1026.68
2018-12-31T06:59:38.005Z,1026.68
2018-12-31T07:00:18.777Z,1026.73
2018-12-31T07:00:59.525Z,1026.67
2018-12-31T07:01:40.230Z,1026.67
2018-12-31T07:02:21.026Z,1026.69
2018-12-31T07:03:01.811Z,1026.69
2018-12-31T07:03:42.591Z,1026.7
2018-12-31T07:04:23.309Z,1026.72
2018-12-31T07:05:04.071Z,1026.73
2018-12-31T07:05:44.890Z,1026.72
2018-12-31T07:06:25.668Z,1026.71
2018-12-31T07:07:06.427Z,1026.7
2018-12-31T07:07:47.163Z,1026.72
2018-12-31T07:08:27.906Z,1026.73
2018-12-31T07:09:08.637Z,1026.76
2018-12-31T07:09:49.448Z,1026.72
2018-12-31T07:10:30.220Z,1026.77
2018-12-31T07:11:11.009Z,1026.79
2018-12-31T07:11:51.734Z,1026.76
2018-12-31T07:12:32.429Z,1026.82
2018-12-31T07:13:13.226Z,1026.78
2018-12-31T07:13:53.952Z,1026.84
2018-12-31T07:14:34.671Z,1026.78
2018-12-31T07:15:15.415Z,1026.81
2018-12-31T07:15:56.173Z,1026.87
2018-12-31T07:16:36.957Z,1026.87
2018-12-31T07:17:17.743Z,1026.83
2018-12-31T07:17:58.630Z,1026.86
2018-12-31T07:18:39.318Z,1026.84
2018-12-31T07:19:20.013Z,1026.87
2018-12-31T07:20:00.725Z,1026.85
2018-12-31T07:20:41.459Z,1026.84
2018-12-31T07:21:22.234Z,1026.83
2018-12-31T07:22:02.963Z,1026.84
2018-12-31T07:22:43.713Z,1026.84
2018-12-31T07:23:24.508Z,1026.88
2018-12-31T07:24:05.255Z,1026.86
2018-12-31T07:24:46.046Z,1026.86
2018-12-31T07:25:26.782Z,1026.84
2018-12-31T07:26:07.502Z,1026.87
2018-12-31T07:26:48.274Z,1026.84
2018-12-31T07:27:29.047Z,1026.84
2018-12-31T07:28:09.872Z,1026.89
2018-12-31T07:28:50.699Z,1026.85
2018-12-31T07:29:31.403Z,1026.84
2018-12-31T07:30:12.143Z,1026.88
2018-12-31T07:30:52.960Z,1026.84
2018-12-31T07:31:33.887Z,1026.87
2018-12-31T07:32:14.755Z,1026.86
2018-12-31T07:32:55.514Z,1026.85
2018-12-31T07:33:36.288Z,1026.9
2018-12-31T07:34:17.138Z,1026.82
2018-12-31T07:34:57.825Z,1026.85
2018-12-31T07:35:38.537Z,1026.86
2018-12-31T07:36:19.358Z,1026.89
2018-12-31T07:37:00.147Z,1026.86
2018-12-31T07:37:41.069Z,1026.91
2018-12-31T07:38:21.822Z,1026.86
2018-12-31T07:39:02.574Z,1026.89
2018-12-31T07:39:43.444Z,1026.87
2018-12-31T07:40:24.138Z,1026.89
2018-12-31T07:41:04.908Z,1026.9
2018-12-31T07:41:45.604Z,1026.9
2018-12-31T07:42:26.379Z,1026.92
2018-12-31T07:43:07.156Z,1026.88
2018-12-31T07:43:47.937Z,1026.91
2018-12-31T07:44:28.696Z,1026.91
2018-12-31T07:45:09.455Z,1026.9
2018-12-31T07:45:50.210Z,1026.89
2018-12-31T07:46:30.950Z,1026.91
2018-12-31T07:47:11.817Z,1026.92
2018-12-31T07:47:52.590Z,1026.93
2018-12-31T07:48:33.301Z,1026.91
2018-12-31T07:49:14.080Z,1026.9
2018-12-31T07:49:54.891Z,1026.93
2018-12-31T07:50:35.743Z,1026.9
2018-12-31T07:51:16.401Z,1026.91
2018-12-31T07:51:57.106Z,1026.93
2018-12-31T07:52:37.814Z,1026.94
2018-12-31T07:53:18.592Z,1026.93
2018-12-31T07:53:59.424Z,1026.96
2018-12-31T07:54:40.186Z,1026.97
2018-12-31T07:55:20.948Z,1026.95
2018-12-31T07:56:01.663Z,1026.96
2018-12-31T07:56:42.494Z,1026.97
2018-12-31T07:57:23.260Z,1026.95
2018-12-31T07:58:04.014Z,1026.94
2018-12-31T07:58:44.766Z,1026.94
2018-12-31T07:59:25.527Z,1026.96
2018-12-31T08:00:06.289Z,1026.91
2018-12-31T08:00:47.115Z,1026.92
2018-12-31T08:01:27.927Z,1026.92
2018-12-31T08:02:08.735Z,1026.89
2018-12-31T08:02:49.495Z,1026.89
2018-12-31T08:03:30.264Z,1026.88
2018-12-31T08:04:11.092Z,1026.9
2018-12-31T08:04:51.916Z,1026.88
2018-12-31T08:05:32.733Z,1026.91
2018-12-31T08:06:13.632Z,1026.96
2018-12-31T08:06:54.476Z,1026.95
2018-12-31T08:07:35.331Z,1026.97
2018-12-31T08:08:16.163Z,1026.97
2018-12-31T08:08:56.922Z,1026.97
2018-12-31T08:09:37.695Z,1026.89
2018-12-31T08:10:18.561Z,1026.96
2018-12-31T08:10:59.354Z,1026.96
2018-12-31T08:11:40.054Z,1026.94
2018-12-31T08:12:20.730Z,1026.98
2018-12-31T08:13:01.543Z,1026.94
2018-12-31T08:13:42.270Z,1026.93
2018-12-31T08:14:23.009Z,1026.97